Time;durP1;ratioP1;P1;durP2;ratioP2;P2;SDS_P1;SDS_P2;PMS_P1;PMS_P2;Temp;Humidity;BMP_temperature;BMP_pressure;BME280_temperature;BME280_humidity;BME280_pressure;Samples;Min_cycle;Max_cycle;Signal;HPM_P1;HPM_P2
2022/05/26 00:03:49;;;;;;;8.98;4.28;;;;;;;14.23;67.90;100050.44;7685169;32;40723;-73
2022/05/26 00:08:06;;;;;;;6.00;3.60;;;;;;;13.96;69.17;100058.38;7685059;32;38059;-74
2022/05/26 00:12:22;;;;;;;9.18;4.35;;;;;;;14.27;68.30;100064.41;7685118;32;37901;-73
2022/05/26 00:16:42;;;;;;;5.80;4.10;;;;;;;14.04;69.30;100071.47;7711554;32;39353;-73
2022/05/26 00:20:58;;;;;;;6.70;3.87;;;;;;;13.80;69.52;100077.69;7711737;32;39885;-73
2022/05/26 00:25:14;;;;;;;5.70;3.80;;;;;;;13.88;69.40;100082.56;7711392;32;38177;-75
2022/05/26 00:29:30;;;;;;;8.20;3.50;;;;;;;14.01;68.56;100092.06;7711481;32;38133;-74
2022/05/26 00:33:46;;;;;;;8.30;3.87;;;;;;;13.90;68.78;100101.44;7711470;32;39306;-74
2022/05/26 00:38:09;;;;;;;8.07;3.78;;;;;;;14.09;67.90;100112.56;7692377;32;39867;-74
2022/05/26 00:42:25;;;;;;;5.68;3.55;;;;;;;13.74;68.89;100116.38;7697368;32;38629;-75
2022/05/26 00:46:43;;;;;;;7.22;4.15;;;;;;;13.92;67.96;100114.87;7684688;32;37191;-74
2022/05/26 00:51:01;;;;;;;6.95;3.70;;;;;;;14.04;67.29;100120.81;7683171;32;39367;-74
2022/05/26 00:55:32;;;;;;;8.48;3.87;;;;;;;14.30;65.80;100123.31;7685818;32;38881;-73
2022/05/26 01:00:09;;;;;;;5.68;3.60;;;;;;;14.37;65.41;100123.81;7711085;32;38044;-74
2022/05/26 01:04:30;;;;;;;5.12;3.17;;;;;;;14.52;64.95;100142.88;7711054;32;37217;-74
2022/05/26 01:08:51;;;;;;;5.40;3.30;;;;;;;14.51;64.58;100135.75;7710568;32;39572;-74
2022/05/26 01:13:07;;;;;;;6.12;3.80;;;;;;;14.43;65.08;100137.16;7706816;32;40714;-74
2022/05/26 01:17:29;;;;;;;6.40;4.22;;;;;;;14.75;63.90;100140.47;7710630;32;37895;-74
2022/05/26 01:21:52;;;;;;;6.10;3.75;;;;;;;14.60;64.20;100144.19;7710806;32;36869;-74
2022/05/26 01:26:11;;;;;;;5.97;4.00;;;;;;;14.56;64.06;100143.94;7709329;32;39376;-74
2022/05/26 01:30:47;;;;;;;5.70;3.70;;;;;;;14.40;64.65;100142.41;7710498;32;39999;-74
2022/05/26 01:35:35;;;;;;;5.55;3.62;;;;;;;14.61;64.04;100149.41;7710319;32;38702;-74
2022/05/26 01:40:05;;;;;;;9.23;4.57;;;;;;;14.45;64.75;100143.22;7709427;32;36960;-74
2022/05/26 01:44:39;;;;;;;7.87;3.87;;;;;;;14.29;65.88;100136.22;7695905;32;39782;-74
2022/05/26 01:49:12;;;;;;;9.20;4.07;;;;;;;14.41;65.20;100141.31;7683475;32;39570;-74
2022/05/26 01:53:52;;;;;;;6.22;4.00;;;;;;;14.58;64.52;100141.72;7683064;32;38067;-74
2022/05/26 01:58:48;;;;;;;6.70;3.85;;;;;;;14.48;64.88;100152.78;7683195;32;38016;-74
2022/05/26 02:03:12;;;;;;;7.30;4.20;;;;;;;14.25;65.67;100151.63;7675721;32;40057;-74
2022/05/26 02:07:40;;;;;;;8.95;3.97;;;;;;;14.24;65.27;100159.00;7682092;32;40040;-74
2022/05/26 02:12:19;;;;;;;6.70;4.20;;;;;;;14.56;64.56;100176.84;7682413;32;38770;-74
2022/05/26 02:16:53;;;;;;;6.25;3.90;;;;;;;14.64;63.80;100180.91;7681732;32;37792;-74
2022/05/26 02:21:29;;;;;;;5.37;3.95;;;;;;;15.06;61.80;100184.06;7684231;32;40175;-74
2022/05/26 02:25:46;;;;;;;9.02;4.20;;;;;;;14.71;62.28;100184.16;7686294;32;40530;-74
2022/05/26 02:30:04;;;;;;;7.40;3.72;;;;;;;14.71;63.15;100183.31;7686125;32;38145;-73
2022/05/26 02:34:21;;;;;;;5.05;3.40;;;;;;;14.97;61.63;100190.19;7686349;32;37720;-74
2022/05/26 02:38:37;;;;;;;6.68;4.10;;;;;;;15.05;60.94;100196.13;7684866;32;39402;-74
2022/05/26 02:43:00;;;;;;;7.70;3.80;;;;;;;14.82;61.38;100201.31;7689859;32;41177;-74
2022/05/26 02:47:25;;;;;;;5.68;3.90;;;;;;;14.70;61.75;100203.66;7711197;32;37953;-74
2022/05/26 02:51:50;;;;;;;6.00;3.90;;;;;;;14.97;60.88;100192.09;7712843;32;36693;-74
2022/05/26 02:56:18;;;;;;;6.87;4.00;;;;;;;14.68;62.02;100197.59;7712446;32;39402;-74
2022/05/26 03:00:34;;;;;;;7.43;4.50;;;;;;;14.65;62.09;100197.09;7712541;32;40966;-74
2022/05/26 03:04:54;;;;;;;8.13;4.22;;;;;;;14.65;62.08;100202.56;7698560;32;37918;-74
2022/05/26 03:09:10;;;;;;;6.18;3.67;;;;;;;14.48;62.45;100204.09;7685919;32;37109;-74
2022/05/26 03:13:26;;;;;;;5.95;3.78;;;;;;;14.43;62.53;100205.75;7686502;32;40029;-74
2022/05/26 03:17:42;;;;;;;10.75;4.22;;;;;;;14.27;63.10;100209.75;7685614;32;40117;-74
2022/05/26 03:21:58;;;;;;;6.35;3.83;;;;;;;14.60;61.75;100213.59;7685491;32;37895;-74
2022/05/26 03:26:15;;;;;;;10.48;3.92;;;;;;;14.57;61.70;100216.91;7685603;32;37244;-74
2022/05/26 03:30:31;;;;;;;14.35;4.28;;;;;;;14.73;61.26;100214.88;7686119;32;40022;-73
2022/05/26 03:43:59;;;;;;;7.43;4.18;;;;;;;14.81;60.76;100232.63;7698806;32;38109;-75
2022/05/26 03:48:15;;;;;;;7.18;4.53;;;;;;;14.78;61.09;100231.28;7710883;32;39375;-75
2022/05/26 03:52:31;;;;;;;7.35;4.45;;;;;;;14.72;61.43;100228.88;7711909;32;39962;-75
2022/05/26 03:56:47;;;;;;;14.10;4.50;;;;;;;14.67;61.78;100242.62;7711595;32;38520;-75
2022/05/26 04:01:05;;;;;;;7.22;4.43;;;;;;;14.64;62.00;100238.53;7709317;32;36838;-74
2022/05/26 04:05:22;;;;;;;8.25;4.22;;;;;;;14.70;62.01;100237.37;7685082;32;39043;-75
2022/05/26 04:09:39;;;;;;;8.75;5.07;;;;;;;14.77;61.95;100243.34;7685094;32;39616;-75
2022/05/26 04:13:55;;;;;;;7.22;4.65;;;;;;;14.63;62.34;100248.69;7697684;32;37688;-75
2022/05/26 04:18:12;;;;;;;7.37;4.80;;;;;;;14.63;62.54;100256.12;7711587;32;37583;-80
2022/05/26 04:22:30;;;;;;;7.22;4.87;;;;;;;14.79;62.49;100265.03;7711596;32;40519;-74
2022/05/26 04:26:46;;;;;;;7.50;4.95;;;;;;;15.18;64.06;100270.41;7711450;32;39905;-74
2022/05/26 04:31:02;;;;;;;8.25;5.45;;;;;;;15.25;61.55;100264.56;7711358;32;37919;-74
2022/05/26 04:35:19;;;;;;;12.98;5.72;;;;;;;15.22;61.65;100262.41;7711329;32;37816;-74
2022/05/26 04:39:35;;;;;;;8.48;5.30;;;;;;;15.34;61.81;100262.00;7711500;32;39979;-74
2022/05/26 04:43:51;;;;;;;8.82;5.37;;;;;;;15.52;61.51;100268.66;7696489;32;39993;-74
2022/05/26 04:48:07;;;;;;;8.13;5.40;;;;;;;15.73;61.00;100270.03;7697258;32;38727;-75
2022/05/26 04:52:24;;;;;;;9.10;4.90;;;;;;;15.75;61.58;100272.53;7704787;32;38095;-74
2022/05/26 04:56:40;;;;;;;9.15;5.62;;;;;;;15.96;61.39;100279.38;7707428;32;39356;-74
2022/05/26 05:00:56;;;;;;;6.80;4.47;;;;;;;16.07;60.92;100291.06;7686404;32;40579;-74
2022/05/26 05:05:12;;;;;;;7.40;4.78;;;;;;;16.22;60.66;100281.78;7684198;32;38887;-74
2022/05/26 05:09:28;;;;;;;8.63;5.12;;;;;;;16.49;60.24;100286.59;7684442;32;37019;-73
2022/05/26 05:13:44;;;;;;;7.70;4.80;;;;;;;16.53;59.90;100284.87;7684235;32;39080;-74
2022/05/26 05:18:01;;;;;;;8.15;4.70;;;;;;;16.81;59.05;100287.72;7684077;32;40856;-73
2022/05/26 05:22:20;;;;;;;7.53;4.87;;;;;;;17.12;58.19;100291.91;7683980;32;37960;-73
2022/05/26 05:26:37;;;;;;;6.65;4.55;;;;;;;17.54;56.62;100293.59;7683925;32;37118;-73
2022/05/26 05:31:01;;;;;;;8.18;4.00;;;;;;;17.37;55.87;100298.91;7684175;32;37312;-73
2022/05/26 05:35:24;;;;;;;8.75;3.55;;;;;;;17.29;54.51;100299.59;7682467;32;40024;-87
2022/05/26 05:39:40;;;;;;;6.47;3.97;;;;;;;17.33;56.04;100303.38;7683599;32;38732;-74
2022/05/26 05:43:57;;;;;;;6.53;3.28;;;;;;;17.48;54.62;100305.03;7697128;32;37804;-75
2022/05/26 05:48:13;;;;;;;7.65;3.15;;;;;;;17.61;53.57;100306.97;7710124;32;39443;-73
2022/05/26 05:52:30;;;;;;;5.87;3.35;;;;;;;17.43;54.19;100311.44;7710033;32;40642;-74
2022/05/26 05:56:47;;;;;;;5.80;2.78;;;;;;;17.79;52.98;100316.25;7702225;32;38755;-73
2022/05/26 06:01:05;;;;;;;5.35;3.12;;;;;;;17.82;54.16;100326.66;7696952;32;37120;-73
2022/05/26 06:05:22;;;;;;;7.18;3.50;;;;;;;17.87;53.83;100326.59;7687266;32;39367;-75
2022/05/26 06:09:38;;;;;;;4.68;2.90;;;;;;;17.77;53.89;100333.09;7703499;32;40058;-75
2022/05/26 06:13:54;;;;;;;6.00;3.10;;;;;;;17.14;55.40;100339.25;7697061;32;38653;-76
2022/05/26 06:18:10;;;;;;;4.82;3.25;;;;;;;17.56;56.54;100346.47;7687327;32;38032;-76
2022/05/26 06:22:29;;;;;;;11.15;3.83;;;;;;;18.00;55.50;100345.06;7704103;32;38707;-82
2022/05/26 06:26:45;;;;;;;4.30;3.08;;;;;;;18.56;52.91;100339.44;7695742;32;38966;-82
2022/05/26 06:31:01;;;;;;;3.87;2.70;;;;;;;18.46;53.56;100340.47;7712469;32;38848;-72
2022/05/26 06:39:51;;;;;;;7.80;2.60;;;;;;;18.48;53.67;100340.16;7712573;32;39918;-75
2022/05/26 06:44:09;;;;;;;3.22;2.50;;;;;;;18.67;51.54;100351.84;7695003;32;40109;-81
2022/05/26 06:48:25;;;;;;;4.78;2.75;;;;;;;18.62;52.35;100351.16;7684423;32;38093;-80
2022/05/26 06:52:41;;;;;;;8.30;2.75;;;;;;;18.94;50.91;100356.47;7685550;32;37184;-81
2022/05/26 06:56:57;;;;;;;5.47;2.80;;;;;;;19.13;50.46;100363.75;7704445;32;39377;-73
2022/05/26 07:01:14;;;;;;;6.70;3.40;;;;;;;19.14;51.79;100359.84;7712232;32;40029;-74
2022/05/26 07:05:35;;;;;;;4.87;2.87;;;;;;;19.03;51.86;100358.50;7711435;32;37987;-83
2022/05/26 07:09:55;;;;;;;7.47;3.20;;;;;;;19.25;52.51;100360.44;7712056;32;37704;-83
2022/05/26 07:14:12;;;;;;;5.47;3.80;;;;;;;19.32;53.12;100358.84;7694191;32;39406;-82
2022/05/26 07:18:28;;;;;;;6.35;3.70;;;;;;;19.18;52.78;100358.09;7684899;32;40126;-83
2022/05/26 07:22:44;;;;;;;9.38;3.40;;;;;;;19.58;50.91;100360.09;7694713;32;37902;-83
2022/05/26 07:27:01;;;;;;;5.07;3.20;;;;;;;19.73;51.19;100361.63;7688286;32;37077;-83
2022/05/26 07:31:17;;;;;;;5.50;3.12;;;;;;;19.32;52.85;100372.66;7685135;32;39314;-82
2022/05/26 07:35:34;;;;;;;7.07;2.87;;;;;;;19.63;52.58;100377.38;7689664;32;40545;-83
2022/05/26 07:44:25;;;;;;;3.80;2.80;;;;;;;19.23;52.58;100384.78;7704623;32;37925;-82
2022/05/26 07:48:42;;;;;;;5.85;3.10;;;;;;;19.69;52.53;100383.56;7696612;32;39167;-82
2022/05/26 07:52:58;;;;;;;6.53;3.62;;;;;;;19.19;52.86;100383.78;7698100;32;40024;-82
2022/05/26 07:57:23;;;;;;;5.37;3.10;;;;;;;19.46;51.51;100377.28;7696894;32;38848;-82
2022/05/26 08:01:39;;;;;;;4.20;3.05;;;;;;;19.55;52.20;100391.16;7701788;32;37999;-79
2022/05/26 08:05:56;;;;;;;6.28;3.37;;;;;;;19.62;51.72;100385.97;7693979;32;39428;-82
2022/05/26 08:10:13;;;;;;;7.78;3.20;;;;;;;20.04;50.07;100384.56;7696924;32;40855;-81
2022/05/26 08:14:29;;;;;;;7.93;3.42;;;;;;;20.63;50.26;100381.41;7705905;32;38735;-83
2022/05/26 08:18:45;;;;;;;8.15;3.55;;;;;;;20.48;51.69;100367.22;7708205;32;36998;-83
2022/05/26 08:23:01;;;;;;;13.18;3.58;;;;;;;20.02;50.74;100386.00;7710702;32;39724;-84
2022/05/26 08:27:17;;;;;;;5.62;3.70;;;;;;;19.99;52.34;100383.88;7709193;32;39858;-83
2022/05/26 08:31:33;;;;;;;7.07;3.40;;;;;;;20.25;51.54;100384.75;7709766;32;38151;-84
2022/05/26 08:35:58;;;;;;;5.20;3.28;;;;;;;20.90;51.17;100378.63;7710153;32;36742;-84
2022/05/26 08:40:49;;;;;;;4.75;2.97;;;;;;;20.06;50.39;100389.78;7707211;32;39550;-83
2022/05/26 08:45:10;;;;;;;4.65;2.60;;;;;;;20.62;50.18;100382.56;7679500;32;40456;-83
2022/05/26 08:49:46;;;;;;;3.95;2.60;;;;;;;20.88;49.89;100373.41;7683459;32;37849;-84
2022/05/26 08:54:06;;;;;;;3.50;2.62;;;;;;;21.15;48.09;100374.22;7706739;32;36534;-82
2022/05/26 08:58:46;;;;;;;6.80;3.28;;;;;;;21.26;48.97;100374.69;7705939;32;38375;-84
2022/05/26 09:03:34;;;;;;;5.45;2.97;;;;;;;21.15;48.97;100375.03;7710615;32;39605;-83
2022/05/26 09:12:56;;;;;;;7.47;3.12;;;;;;;21.23;48.76;100369.78;7708665;32;37353;-83
2022/05/26 09:17:13;;;;;;;4.00;3.12;;;;;;;21.64;49.95;100371.97;7710698;32;39409;-84
2022/05/26 09:21:33;;;;;;;4.72;3.00;;;;;;;21.39;49.04;100374.47;7707621;32;39605;-84
2022/05/26 09:25:49;;;;;;;6.07;2.72;;;;;;;21.99;46.15;100374.59;7709173;32;37640;-84
2022/05/26 09:30:26;;;;;;;8.20;3.33;;;;;;;22.24;47.08;100366.44;7709526;32;36685;-84
2022/05/26 09:34:44;;;;;;;4.80;3.33;;;;;;;22.20;46.18;100374.66;7710005;32;39288;-84
2022/05/26 09:39:00;;;;;;;6.65;4.10;;;;;;;22.58;45.04;100361.84;7709872;32;39968;-85
2022/05/26 09:43:16;;;;;;;7.80;3.10;;;;;;;22.98;43.67;100367.69;7709982;32;38273;-84
2022/05/26 09:47:32;;;;;;;3.08;2.33;;;;;;;22.96;43.33;100375.56;7709748;32;38179;-84
2022/05/26 09:51:49;;;;;;;5.82;2.80;;;;;;;23.24;42.95;100370.22;7709629;32;40083;-84
2022/05/26 09:56:07;;;;;;;10.18;2.87;;;;;;;23.01;44.52;100369.78;7708752;32;39662;-84
2022/05/26 10:00:43;;;;;;;8.43;3.00;;;;;;;22.86;43.83;100362.87;7692499;32;38359;-85
2022/05/26 10:05:25;;;;;;;5.32;2.40;;;;;;;22.88;44.60;100360.56;7682810;32;36849;-85
2022/05/26 10:09:54;;;;;;;5.85;2.10;;;;;;;23.52;42.49;100350.13;7683884;32;39016;-85
2022/05/26 10:14:25;;;;;;;3.67;1.70;;;;;;;23.36;40.66;100352.75;7691309;32;39856;-85
2022/05/26 10:19:06;;;;;;;1.87;1.50;;;;;;;23.66;40.67;100355.34;7688779;32;38832;-83
2022/05/26 10:23:34;;;;;;;5.57;1.65;;;;;;;24.68;39.26;100341.47;7701261;32;37128;-77
2022/05/26 10:27:59;;;;;;;1.48;1.20;;;;;;;24.76;38.16;100333.31;7687164;32;39418;-84
2022/05/26 10:32:24;;;;;;;1.37;1.10;;;;;;;24.95;36.32;100327.88;7694127;32;39990;-85
2022/05/26 10:36:54;;;;;;;2.37;1.40;;;;;;;25.52;37.44;100333.38;7695231;32;38817;-85
2022/05/26 10:41:18;;;;;;;1.75;1.30;;;;;;;25.42;36.23;100321.59;7691363;32;37655;-85
2022/05/26 10:45:39;;;;;;;1.58;1.25;;;;;;;25.04;36.61;100325.75;7684683;32;39374;-84
2022/05/26 10:50:01;;;;;;;2.37;1.62;;;;;;;24.67;37.35;100328.69;7685790;32;40805;-85
2022/05/26 10:54:40;;;;;;;4.27;1.30;;;;;;;24.47;38.05;100326.88;7685525;32;38628;-85
2022/05/26 10:59:13;;;;;;;2.70;1.27;;;;;;;24.47;37.86;100326.88;7685573;32;37121;-84
2022/05/26 11:03:41;;;;;;;2.70;1.42;;;;;;;25.04;37.66;100328.53;7684536;32;39353;-85
2022/05/26 11:08:28;;;;;;;2.87;1.10;;;;;;;24.47;36.71;100329.66;7685512;32;41440;-85
2022/05/26 11:12:48;;;;;;;3.00;1.50;;;;;;;24.50;37.00;100321.41;7685236;32;38807;-85
2022/05/26 11:17:24;;;;;;;2.03;1.48;;;;;;;24.30;37.08;100317.63;7685399;32;37545;-84
2022/05/26 11:21:40;;;;;;;2.45;1.17;;;;;;;24.49;37.08;100313.38;7685399;32;39065;-85
2022/05/26 11:26:32;;;;;;;3.78;1.10;;;;;;;24.31;35.91;100322.03;7683991;32;40780;-79
2022/05/26 11:40:11;;;;;;;4.37;1.10;;;;;;;25.41;31.86;100285.66;7710708;32;39983;-85
2022/05/26 11:44:41;;;;;;;1.83;0.85;;;;;;;25.34;32.31;100294.66;7711998;32;40549;-84
2022/05/26 11:48:57;;;;;;;1.98;1.08;;;;;;;25.27;31.65;100291.69;7711922;32;38530;-84
2022/05/26 11:53:27;;;;;;;0.73;0.70;;;;;;;24.92;33.00;100281.16;7711934;32;36771;-83
2022/05/26 11:57:43;;;;;;;4.72;1.10;;;;;;;24.61;33.10;100281.91;7710846;32;40490;-83
2022/05/26 12:01:59;;;;;;;0.98;0.90;;;;;;;24.06;34.26;100284.25;7711847;32;41264;-84
2022/05/26 12:06:29;;;;;;;2.95;0.98;;;;;;;24.22;34.58;100292.72;7710392;32;37617;-85
2022/05/26 12:10:57;;;;;;;0.98;0.75;;;;;;;24.49;34.30;100274.37;7711692;32;37493;-85
2022/05/26 12:15:19;;;;;;;3.30;0.90;;;;;;;24.22;34.10;100270.41;7711674;32;39216;-85
2022/05/26 12:19:42;;;;;;;1.93;0.87;;;;;;;24.11;34.61;100268.13;7711536;32;39900;-85
2022/05/26 12:24:32;;;;;;;1.77;0.70;;;;;;;24.04;35.72;100270.66;7711277;32;38783;-84
2022/05/26 12:28:49;;;;;;;2.28;1.02;;;;;;;23.77;36.52;100277.78;7694610;32;37003;-84
2022/05/26 12:34:02;;;;;;;3.20;1.15;;;;;;;23.17;36.78;100283.78;7711181;32;39268;-84
2022/05/26 12:38:55;;;;;;;0.73;0.73;;;;;;;23.43;35.56;100274.28;7694330;32;40701;-84
2022/05/26 12:43:56;;;;;;;2.70;1.33;;;;;;;23.05;37.38;100272.59;7711320;32;38558;-83
2022/05/26 12:48:23;;;;;;;5.15;1.10;;;;;;;22.62;37.05;100280.22;7653599;32;36992;-83
2022/05/26 12:53:00;;;;;;;3.60;1.08;;;;;;;23.05;36.23;100264.25;7706184;32;144587;-83
2022/05/26 12:57:22;;;;;;;4.03;1.10;;;;;;;23.63;37.82;100256.69;7710580;32;39790;-83
2022/05/26 13:01:38;;;;;;;6.83;1.10;;;;;;;24.35;35.70;100253.31;7709697;32;38784;-84
2022/05/26 13:06:00;;;;;;;2.53;0.90;;;;;;;24.70;34.84;100238.78;7709196;32;36982;-85
2022/05/26 13:10:18;;;;;;;4.22;1.15;;;;;;;25.51;32.69;100239.63;7711209;32;39202;-85
2022/05/26 13:14:45;;;;;;;3.20;1.35;;;;;;;25.43;31.10;100247.03;7709512;32;40821;-85
2022/05/26 13:19:16;;;;;;;0.88;0.77;;;;;;;25.65;30.61;100238.00;7710508;32;38892;-85
2022/05/26 13:23:33;;;;;;;3.95;0.85;;;;;;;24.69;32.93;100233.56;7710582;32;37038;-86
2022/05/26 13:27:56;;;;;;;2.28;0.82;;;;;;;25.05;33.70;100238.09;7710375;32;40036;-84
2022/05/26 13:36:51;;;;;;;0.90;0.88;;;;;;;24.94;32.96;100234.25;7708142;32;38921;-85
2022/05/26 13:41:10;;;;;;;3.08;1.00;;;;;;;24.24;34.17;100235.47;7709311;32;38176;-84
2022/05/26 13:45:26;;;;;;;3.92;1.83;;;;;;;25.17;34.41;100230.81;7709186;32;39409;-85
2022/05/26 13:49:55;;;;;;;1.98;1.00;;;;;;;26.11;33.43;100226.25;7709011;32;40836;-85
2022/05/26 13:54:26;;;;;;;0.65;0.65;;;;;;;26.53;31.95;100222.72;7708752;32;38115;-85
2022/05/26 13:58:46;;;;;;;5.50;1.00;;;;;;;26.51;31.66;100224.25;7708040;32;35692;-84
2022/05/26 14:03:06;;;;;;;6.28;1.00;;;;;;;27.32;29.77;100218.59;7702562;32;39360;-85
2022/05/26 14:07:33;;;;;;;;;;;;;;;27.45;30.89;100201.56;7707861;32;39968;-84
2022/05/26 14:12:03;;;;;;;11.63;1.37;;;;;;;27.32;30.33;100203.75;7708655;32;38264;-86
2022/05/26 14:16:21;;;;;;;1.35;1.00;;;;;;;26.86;30.49;100200.97;7709103;32;36802;-87
2022/05/26 14:20:37;;;;;;;1.25;0.80;;;;;;;26.75;30.50;100192.38;7712013;32;38968;-86
2022/05/26 14:24:53;;;;;;;1.37;0.88;;;;;;;27.12;30.72;100186.22;7711825;32;39662;-84
2022/05/26 14:29:31;;;;;;;2.60;0.80;;;;;;;26.81;30.44;100182.50;7712926;32;38407;-84
2022/05/26 14:34:07;;;;;;;2.05;0.98;;;;;;;27.50;30.25;100184.44;7712382;32;37100;-81
2022/05/26 14:38:23;;;;;;;2.33;0.90;;;;;;;27.68;30.59;100182.72;7710676;32;40132;-82
2022/05/26 14:42:43;;;;;;;4.30;1.00;;;;;;;27.97;28.41;100168.31;7712827;32;40740;-82
2022/05/26 14:46:59;;;;;;;2.42;0.98;;;;;;;27.72;29.94;100158.34;7712719;32;38069;-82
2022/05/26 14:51:15;;;;;;;3.03;0.60;;;;;;;27.84;29.08;100150.91;7712835;32;37150;-82
2022/05/26 14:55:34;;;;;;;3.08;1.25;;;;;;;27.70;28.85;100134.75;7712515;32;39379;-82
2022/05/26 14:59:51;;;;;;;2.47;0.85;;;;;;;27.53;28.83;100147.31;7712547;32;39921;-82
2022/05/26 15:04:08;;;;;;;1.70;0.98;;;;;;;26.30;30.00;100149.19;7712394;32;37629;-82
2022/05/26 15:08:28;;;;;;;0.88;0.73;;;;;;;26.86;29.55;100137.47;7712508;32;36910;-82
2022/05/26 15:12:45;;;;;;;1.05;0.90;;;;;;;27.12;27.19;100119.09;7711360;32;39397;-82
2022/05/26 15:17:04;;;;;;;3.70;1.05;;;;;;;27.54;26.48;100120.91;7712080;32;40740;-82
2022/05/26 15:21:20;;;;;;;2.85;0.75;;;;;;;27.23;27.21;100124.84;7711155;32;38942;-83
2022/05/26 15:26:07;;;;;;;1.35;0.68;;;;;;;26.65;28.46;100121.13;7711923;32;37340;-82
2022/05/26 15:30:16;;;;;;;4.43;1.12;;;;;;;26.29;27.94;100111.25;7712259;32;39281;-82
2022/05/26 15:34:33;;;;;;;1.48;0.93;;;;;;;26.71;28.34;100113.22;7712156;32;40812;-82
2022/05/26 15:38:51;;;;;;;2.90;0.60;;;;;;;27.00;27.11;100105.31;7711956;32;38645;-82
2022/05/26 15:43:09;;;;;;;1.37;0.77;;;;;;;27.07;27.20;100099.81;7710977;32;36068;-82
2022/05/26 15:47:35;;;;;;;0.77;0.70;;;;;;;27.27;27.12;100104.13;7711998;32;38479;-82
2022/05/26 15:51:52;;;;;;;1.00;0.80;;;;;;;26.91;27.36;100109.16;7712019;32;40073;-82
2022/05/26 15:56:11;;;;;;;8.55;1.12;;;;;;;27.08;27.73;100109.81;7708243;32;37975;-84
2022/05/26 16:00:28;;;;;;;1.55;0.70;;;;;;;26.65;27.29;100106.31;7707425;32;37709;-82
2022/05/26 16:04:44;;;;;;;1.67;0.73;;;;;;;26.05;29.49;100114.00;7711083;32;38992;-82
2022/05/26 16:09:00;;;;;;;2.15;1.00;;;;;;;26.39;28.95;100113.44;7711178;32;39912;-81
2022/05/26 16:13:17;;;;;;;1.20;0.93;;;;;;;25.40;28.43;100122.97;7710967;32;38013;-81
2022/05/26 16:17:32;;;;;;;1.35;0.70;;;;;;;25.37;27.87;100109.78;7709983;32;37044;-80
2022/05/26 16:21:49;;;;;;;0.70;0.70;;;;;;;25.05;29.30;100118.16;7711003;32;39372;-80
2022/05/26 16:26:05;;;;;;;1.42;0.70;;;;;;;24.40;31.04;100109.34;7710030;32;39905;-81
2022/05/26 16:30:24;;;;;;;1.48;0.80;;;;;;;24.59;30.88;100108.66;7710086;32;38064;-81
2022/05/26 16:34:40;;;;;;;4.65;0.90;;;;;;;24.21;30.87;100113.59;7709973;32;37781;-80
2022/05/26 16:38:57;;;;;;;1.60;0.80;;;;;;;24.44;31.28;100110.22;7709824;32;39524;-80
2022/05/26 16:43:13;;;;;;;1.35;0.62;;;;;;;24.70;31.33;100107.75;7710917;32;40011;-80
2022/05/26 16:47:29;;;;;;;2.53;1.20;;;;;;;24.14;31.77;100107.84;7710821;32;38875;-80
2022/05/26 16:51:47;;;;;;;2.20;1.08;;;;;;;24.25;31.92;100117.31;7710539;32;37147;-80
2022/05/26 16:56:07;;;;;;;1.52;0.55;;;;;;;24.42;32.25;100109.78;7710726;32;39358;-81
2022/05/26 17:00:23;;;;;;;1.90;0.73;;;;;;;24.19;32.62;100110.38;7710436;32;40740;-81
2022/05/26 17:04:39;;;;;;;3.10;1.00;;;;;;;24.20;33.76;100112.00;7710750;32;38926;-82
2022/05/26 17:08:59;;;;;;;0.80;0.80;;;;;;;24.34;34.28;100106.00;7710768;32;38009;-81
2022/05/26 17:22:36;;;;;;;2.12;0.68;;;;;;;24.30;32.53;100114.28;7681512;32;38812;-81
2022/05/26 17:26:52;;;;;;;2.78;0.80;;;;;;;24.33;33.54;100110.75;7710313;32;37816;-81
2022/05/26 17:31:09;;;;;;;1.48;0.73;;;;;;;23.87;35.20;100120.59;7710213;32;40123;-80
2022/05/26 17:35:25;;;;;;;1.83;1.05;;;;;;;24.16;34.92;100120.25;7708991;32;39601;-81
2022/05/26 17:39:41;;;;;;;1.85;0.65;;;;;;;24.00;34.92;100103.50;7709815;32;38524;-81
2022/05/26 17:43:58;;;;;;;3.17;0.85;;;;;;;23.67;35.68;100111.25;7708502;32;36719;-81
2022/05/26 17:48:15;;;;;;;2.28;1.02;;;;;;;23.41;36.23;100113.28;7710348;32;39809;-81
2022/05/26 17:52:31;;;;;;;2.90;0.98;;;;;;;23.73;35.60;100116.25;7719117;32;39936;-81
2022/05/26 17:56:48;;;;;;;1.75;0.88;;;;;;;23.81;35.31;100122.84;7718514;32;38212;-84
2022/05/26 18:01:05;;;;;;;2.05;0.90;;;;;;;23.95;36.90;100130.78;7717614;32;37229;-84
2022/05/26 18:05:22;;;;;;;1.42;1.05;;;;;;;23.62;36.34;100124.25;7718843;32;40168;-84
2022/05/26 18:09:38;;;;;;;3.15;0.90;;;;;;;23.44;37.21;100123.72;7697900;32;40783;-81
2022/05/26 18:13:54;;;;;;;1.42;0.90;;;;;;;23.87;36.42;100127.00;7714620;32;38947;-85
2022/05/26 18:18:15;;;;;;;1.17;0.80;;;;;;;23.66;37.61;100127.12;7717960;32;37133;-86
2022/05/26 18:22:42;;;;;;;4.03;1.37;;;;;;;23.84;36.94;100121.34;7703896;32;39479;-81
2022/05/26 18:26:58;;;;;;;3.20;1.30;;;;;;;23.85;37.11;100129.31;7710381;32;40739;-82
2022/05/26 18:31:26;;;;;;;5.90;1.40;;;;;;;23.75;37.12;100129.78;7718330;32;38732;-83
2022/05/26 18:35:42;;;;;;;1.45;1.12;;;;;;;23.54;37.21;100138.28;7717086;32;37001;-82
2022/05/26 18:39:59;;;;;;;1.90;1.00;;;;;;;23.70;38.01;100132.81;7718091;32;39307;-84
2022/05/26 18:44:15;;;;;;;2.30;1.08;;;;;;;23.70;37.86;100139.19;7693153;32;40722;-85
2022/05/26 18:48:36;;;;;;;1.42;1.00;;;;;;;23.54;39.00;100141.91;7717102;32;37729;-86
2022/05/26 18:52:53;;;;;;;1.65;1.10;;;;;;;23.46;39.60;100145.63;7715825;32;35848;-84
2022/05/26 18:57:09;;;;;;;1.80;1.20;;;;;;;23.52;39.22;100144.22;7715646;32;39298;-79
2022/05/26 19:01:26;;;;;;;3.95;1.02;;;;;;;23.64;39.07;100148.94;7713651;32;40010;-81
2022/05/26 19:05:58;;;;;;;3.40;1.20;;;;;;;23.65;39.07;100144.22;7711569;32;38796;-81
2022/05/26 19:10:18;;;;;;;2.28;1.20;;;;;;;23.57;39.35;100163.44;7710945;32;37235;-79
2022/05/26 19:14:37;;;;;;;2.72;1.12;;;;;;;23.52;39.17;100166.47;7711253;32;39493;-79
2022/05/26 19:18:53;;;;;;;1.98;1.17;;;;;;;23.43;39.47;100169.37;7710809;32;39984;-78
2022/05/26 19:23:10;;;;;;;2.90;1.10;;;;;;;23.44;39.75;100171.03;7706496;32;37932;-78
2022/05/26 19:27:26;;;;;;;2.75;0.82;;;;;;;23.22;39.59;100172.31;7689888;32;37276;-78
2022/05/26 19:31:43;;;;;;;4.75;1.23;;;;;;;23.37;38.53;100175.53;7710708;32;39270;-76
2022/05/26 19:35:59;;;;;;;1.37;1.20;;;;;;;23.04;40.28;100179.22;7710635;32;39752;-76
2022/05/26 19:40:17;;;;;;;6.87;1.20;;;;;;;22.88;40.12;100182.66;7710982;32;37618;-77
2022/05/26 19:44:38;;;;;;;1.55;1.30;;;;;;;22.78;40.72;100193.44;7708391;32;36254;-75
2022/05/26 19:48:55;;;;;;;3.33;1.30;;;;;;;22.85;40.49;100194.50;7708765;32;39583;-76
2022/05/26 19:53:11;;;;;;;1.42;1.00;;;;;;;22.52;41.11;100190.94;7708801;32;40745;-76
2022/05/26 19:57:28;;;;;;;2.95;1.08;;;;;;;22.53;41.09;100198.12;7710589;32;38763;-76
2022/05/26 20:01:44;;;;;;;2.60;1.20;;;;;;;22.47;41.50;100195.56;7710740;32;37065;-75
2022/05/26 20:06:00;;;;;;;1.42;1.00;;;;;;;22.58;41.45;100201.50;7710718;32;40319;-75
2022/05/26 20:10:17;;;;;;;1.37;1.12;;;;;;;22.56;42.03;100203.81;7709473;32;40372;-75
2022/05/26 20:14:33;;;;;;;5.60;1.40;;;;;;;22.66;42.14;100208.09;7707890;32;38037;-75
2022/05/26 20:18:50;;;;;;;2.87;1.15;;;;;;;22.56;42.59;100208.53;7710224;32;36975;-76
2022/05/26 20:23:06;;;;;;;2.90;1.50;;;;;;;22.34;42.89;100210.56;7710564;32;38990;-76
2022/05/26 20:27:22;;;;;;;1.37;1.00;;;;;;;22.48;43.32;100211.06;7710911;32;40530;-76
2022/05/26 20:31:38;;;;;;;1.83;1.20;;;;;;;22.30;43.21;100209.59;7710432;32;37991;-76
2022/05/26 20:35:55;;;;;;;1.27;1.10;;;;;;;22.22;42.96;100218.81;7709228;32;37805;-76
2022/05/26 20:40:11;;;;;;;1.90;1.30;;;;;;;22.31;42.73;100219.56;7710368;32;40252;-76
2022/05/26 20:44:27;;;;;;;1.98;1.35;;;;;;;22.20;43.00;100221.13;7709137;32;40876;-76
2022/05/26 20:48:44;;;;;;;3.62;1.48;;;;;;;22.29;43.24;100208.78;7708186;32;38021;-76
2022/05/26 20:53:00;;;;;;;1.95;1.12;;;;;;;22.08;43.76;100222.66;7710174;32;37344;-76
2022/05/26 20:57:25;;;;;;;1.15;1.05;;;;;;;22.01;44.00;100227.97;7707141;32;39059;-76
2022/05/26 21:01:41;;;;;;;6.18;1.25;;;;;;;21.96;44.22;100219.84;7708558;32;39639;-76